Savanna, Illinois
Current Conditions -  °F | °C
As of 3:35 PM on Thursday 23 Oct 2014 (Local Time) from KSFY Reporting Station
Overcast Overcast  
Wind Chill: 59°   Ceiling: 2600
Heat Index: 59°   Visibility: 10mi
Dew Point: 45°   Wind: 9mph
Humidity: 61%   Direction: 190°S
Pressure: 30.04"   Gusts: NA
Location:  42.09°N, 90.16°W
Report Text: KSFY 232035Z AUTO 19008KT 10SM OVC026 15/07 A3004 RMK AO2 T01480074
Loading
Personal Weather Stations






























Interactive Weather Map
Tropical Storm Tracking
New forecast layout! Learn more

10-Day Weather Forecast

Advertisements
Track Severe Weather on mobile